Time;durP1;ratioP1;P1;durP2;ratioP2;P2;SDS_P1;SDS_P2;PMS_P1;PMS_P2;Temp;Humidity;BMP_temperature;BMP_pressure;BME280_temperature;BME280_humidity;BME280_pressure;Samples;Min_cycle;Max_cycle;Signal;HPM_P1;HPM_P2
2021/06/29 00:00:07;;;;;;;5.13;2.43;;;21.00;99.90;;;;;;5085770;28;20394;-82
2021/06/29 00:02:33;;;;;;;3.10;2.90;;;21.00;99.90;;;;;;5086313;28;20242;-82
2021/06/29 00:04:59;;;;;;;3.43;2.80;;;20.90;99.90;;;;;;5083622;28;20818;-82
2021/06/29 00:07:25;;;;;;;4.90;2.57;;;20.70;99.90;;;;;;5101501;28;20174;-82
2021/06/29 00:09:51;;;;;;;3.33;3.03;;;20.70;99.90;;;;;;5101223;28;20186;-80
2021/06/29 00:12:16;;;;;;;3.20;3.00;;;20.80;99.90;;;;;;5100550;28;20164;-83
2021/06/29 00:14:44;;;;;;;3.63;3.33;;;20.80;99.90;;;;;;5084941;28;20577;-83
2021/06/29 00:17:10;;;;;;;2.50;2.30;;;20.90;99.90;;;;;;5085033;28;20163;-82
2021/06/29 00:19:36;;;;;;;2.33;2.10;;;21.00;99.90;;;;;;5084690;28;20425;-82
2021/06/29 00:22:03;;;;;;;3.87;2.40;;;21.00;99.90;;;;;;5085075;28;20495;-82
2021/06/29 00:24:28;;;;;;;5.43;2.60;;;21.00;99.90;;;;;;5100477;28;20162;-82
2021/06/29 00:26:54;;;;;;;2.67;2.47;;;20.90;99.90;;;;;;5083864;28;20476;-82
2021/06/29 00:29:20;;;;;;;3.47;2.30;;;20.90;99.90;;;;;;5085311;28;20575;-83
2021/06/29 00:31:46;;;;;;;4.03;2.60;;;21.00;99.90;;;;;;5084954;28;20164;-82
2021/06/29 00:34:12;;;;;;;3.27;3.00;;;20.90;99.90;;;;;;5100682;28;20263;-82
2021/06/29 00:36:38;;;;;;;2.67;2.43;;;20.80;99.90;;;;;;5084650;28;20545;-81
2021/06/29 00:39:05;;;;;;;3.00;2.80;;;20.90;99.90;;;;;;5084354;28;20412;-82
2021/06/29 00:41:31;;;;;;;5.23;3.33;;;20.90;99.90;;;;;;5084949;28;20231;-83
2021/06/29 00:43:58;;;;;;;3.30;2.87;;;20.90;99.90;;;;;;5100340;28;20397;-83
2021/06/29 00:46:24;;;;;;;2.83;2.63;;;20.90;99.90;;;;;;5084304;28;20408;-82
2021/06/29 00:48:50;;;;;;;2.67;2.47;;;20.40;99.90;;;;;;5087250;28;20396;-80
2021/06/29 00:51:20;;;;;;;2.63;2.43;;;20.00;99.90;;;;;;5090064;28;20708;-81
2021/06/29 00:53:47;;;;;;;2.37;2.17;;;19.90;99.90;;;;;;5105707;28;20398;-79
2021/06/29 00:56:14;;;;;;;5.07;3.30;;;20.20;99.90;;;;;;5088851;28;20386;-79
2021/06/29 00:58:48;;;;;;;2.90;2.70;;;20.20;99.90;;;;;;5102585;28;20390;-82
2021/06/29 01:01:14;;;;;;;3.60;2.57;;;20.40;99.90;;;;;;5099691;28;20441;-82
2021/06/29 01:03:41;;;;;;;2.83;2.57;;;20.50;99.90;;;;;;5099998;28;20389;-81
2021/06/29 01:06:09;;;;;;;2.40;2.23;;;20.50;99.90;;;;;;5099488;28;20393;-82
2021/06/29 01:08:36;;;;;;;3.93;2.63;;;20.50;99.90;;;;;;5083957;28;20458;-82
2021/06/29 01:11:02;;;;;;;4.10;2.83;;;20.50;99.90;;;;;;5083008;28;20394;-82
2021/06/29 01:13:33;;;;;;;3.30;2.50;;;20.60;99.90;;;;;;5099131;28;20474;-82
2021/06/29 01:16:00;;;;;;;2.90;2.70;;;20.60;99.90;;;;;;5083368;28;20404;-82
2021/06/29 01:18:26;;;;;;;3.00;2.27;;;20.60;99.90;;;;;;5099657;28;20394;-81
2021/06/29 01:20:53;;;;;;;2.80;2.60;;;20.50;99.90;;;;;;5098875;28;20441;-82
2021/06/29 01:23:21;;;;;;;2.53;2.37;;;20.60;99.90;;;;;;5083443;28;20389;-82
2021/06/29 01:25:47;;;;;;;3.13;2.87;;;20.70;99.90;;;;;;5099385;28;20397;-82
2021/06/29 01:28:23;;;;;;;2.03;1.93;;;20.70;99.90;;;;;;5099137;28;20888;-81
2021/06/29 01:31:06;;;;;;;3.53;2.50;;;20.60;99.90;;;;;;5082936;28;20386;-82
2021/06/29 01:33:33;;;;;;;2.90;2.30;;;20.70;99.90;;;;;;5084925;28;20420;-81
2021/06/29 01:35:59;;;;;;;2.87;2.67;;;20.60;99.90;;;;;;5086201;28;20413;-80
2021/06/29 01:38:25;;;;;;;2.80;2.60;;;20.70;99.90;;;;;;5086410;28;20391;-80
2021/06/29 01:40:52;;;;;;;2.63;2.43;;;20.70;99.90;;;;;;5103326;28;20484;-79
2021/06/29 01:43:23;;;;;;;3.27;3.07;;;20.70;99.90;;;;;;5104325;28;20398;-79
2021/06/29 01:45:51;;;;;;;4.13;2.50;;;20.70;99.90;;;;;;5086451;28;20404;-81
2021/06/29 01:48:25;;;;;;;2.73;2.40;;;20.60;99.90;;;;;;5084654;28;20397;-82
2021/06/29 01:50:53;;;;;;;2.17;2.07;;;20.40;99.90;;;;;;5082136;28;20436;-82
2021/06/29 01:53:19;;;;;;;3.40;2.73;;;20.50;99.90;;;;;;5081818;28;20390;-82
2021/06/29 01:55:46;;;;;;;2.88;2.67;;;20.30;99.90;;;;;;5082850;28;20406;-82
2021/06/29 01:58:14;;;;;;;2.90;2.30;;;19.90;99.90;;;;;;5098755;28;20194;-82
2021/06/29 02:00:41;;;;;;;2.20;2.07;;;19.50;99.90;;;;;;5083222;28;20909;-82
2021/06/29 02:03:07;;;;;;;3.00;2.80;;;19.60;99.90;;;;;;5082906;28;20390;-81
2021/06/29 02:05:33;;;;;;;2.73;2.53;;;19.90;99.90;;;;;;5082585;28;20698;-82
2021/06/29 02:07:58;;;;;;;2.43;2.27;;;20.20;99.90;;;;;;5081900;28;20421;-81
2021/06/29 02:10:24;;;;;;;4.37;2.40;;;20.20;99.90;;;;;;5097304;28;20182;-81
2021/06/29 02:12:50;;;;;;;3.30;2.50;;;20.20;99.90;;;;;;5081912;28;20191;-81
2021/06/29 02:15:16;;;;;;;3.30;2.57;;;20.30;99.90;;;;;;5081875;28;20174;-81
2021/06/29 02:17:42;;;;;;;3.30;3.00;;;20.30;99.90;;;;;;5082564;28;20163;-80
2021/06/29 02:20:09;;;;;;;2.27;2.07;;;19.70;99.90;;;;;;5096914;28;20476;-82
2021/06/29 02:22:35;;;;;;;2.73;2.50;;;19.30;99.90;;;;;;5081560;28;20165;-82
2021/06/29 02:25:01;;;;;;;5.03;2.80;;;19.30;99.90;;;;;;5080975;28;20734;-81
2021/06/29 02:27:30;;;;;;;3.03;2.83;;;19.20;99.90;;;;;;5081578;28;20374;-81
2021/06/29 02:29:57;;;;;;;3.60;2.87;;;19.10;99.90;;;;;;5081939;28;20421;-81
2021/06/29 02:32:24;;;;;;;2.57;2.40;;;19.20;99.90;;;;;;5097840;28;20463;-81
2021/06/29 02:34:50;;;;;;;2.93;2.63;;;19.10;99.90;;;;;;5080805;28;20401;-80
2021/06/29 02:37:16;;;;;;;3.07;2.77;;;19.10;99.90;;;;;;5081005;28;20413;-82
2021/06/29 02:39:42;;;;;;;2.80;2.60;;;18.90;99.90;;;;;;5082062;28;20156;-84
2021/06/29 02:42:12;;;;;;;2.80;2.60;;;19.20;99.90;;;;;;5096493;28;20713;-82
2021/06/29 02:44:38;;;;;;;4.67;3.00;;;19.40;99.90;;;;;;5096864;28;20185;-82
2021/06/29 02:47:04;;;;;;;3.10;2.80;;;19.60;99.90;;;;;;5080323;28;20398;-80
2021/06/29 02:49:30;;;;;;;3.63;3.10;;;19.40;99.90;;;;;;5081619;28;20616;-81
2021/06/29 02:51:56;;;;;;;3.80;3.30;;;19.40;99.90;;;;;;5080891;28;20413;-81
2021/06/29 02:54:22;;;;;;;4.90;3.43;;;19.40;99.90;;;;;;5081602;28;20160;-82
2021/06/29 02:56:48;;;;;;;4.70;3.20;;;19.50;99.90;;;;;;5082212;28;20390;-81
2021/06/29 02:59:15;;;;;;;3.03;2.73;;;19.30;99.90;;;;;;5096997;28;20401;-82
2021/06/29 03:01:42;;;;;;;5.30;2.80;;;19.30;99.90;;;;;;5098374;28;20285;-81
2021/06/29 03:04:10;;;;;;;3.60;3.30;;;19.20;99.90;;;;;;5086296;28;20389;-81
2021/06/29 03:06:37;;;;;;;3.43;3.13;;;19.30;99.90;;;;;;5085342;28;20843;-82
2021/06/29 03:09:05;;;;;;;3.40;3.20;;;19.20;99.90;;;;;;5085179;28;20433;-81
2021/06/29 03:11:32;;;;;;;3.40;3.10;;;19.30;99.90;;;;;;5085073;28;20885;-82
2021/06/29 03:13:57;;;;;;;5.50;3.50;;;19.40;99.90;;;;;;5085416;28;20432;-81
2021/06/29 03:16:23;;;;;;;3.30;3.10;;;19.40;99.90;;;;;;5101529;28;20401;-82
2021/06/29 03:18:50;;;;;;;3.87;3.57;;;19.50;99.90;;;;;;5084751;28;20217;-81
2021/06/29 03:21:17;;;;;;;4.30;2.70;;;19.30;99.90;;;;;;5085204;28;20183;-82
2021/06/29 03:23:42;;;;;;;3.33;3.13;;;19.20;99.90;;;;;;5101848;28;20408;-81
2021/06/29 03:26:08;;;;;;;4.90;3.33;;;19.20;99.90;;;;;;5085616;28;20378;-81
2021/06/29 03:28:34;;;;;;;3.10;2.90;;;19.50;99.90;;;;;;5086150;28;20163;-81
2021/06/29 03:31:00;;;;;;;4.30;4.00;;;19.70;99.90;;;;;;5101522;28;20170;-81
2021/06/29 03:33:26;;;;;;;5.93;3.13;;;19.60;99.90;;;;;;5085913;28;20182;-81
2021/06/29 03:35:52;;;;;;;3.33;3.03;;;19.70;99.90;;;;;;5085471;28;20878;-83
2021/06/29 03:38:18;;;;;;;5.80;3.33;;;19.80;99.90;;;;;;5086087;28;20665;-84
2021/06/29 03:40:44;;;;;;;3.37;3.10;;;19.80;99.90;;;;;;5086201;28;20285;-82
2021/06/29 03:43:10;;;;;;;3.27;3.07;;;19.70;99.90;;;;;;5101823;28;20166;-81
2021/06/29 03:45:35;;;;;;;3.50;3.30;;;19.60;99.90;;;;;;5101394;28;20393;-82
2021/06/29 03:48:02;;;;;;;4.40;4.10;;;19.80;99.90;;;;;;5088139;28;20152;-81
2021/06/29 03:50:28;;;;;;;3.77;3.30;;;19.90;99.90;;;;;;5103996;28;20167;-81
2021/06/29 03:52:54;;;;;;;3.27;3.07;;;19.90;99.90;;;;;;5089229;28;20425;-81
2021/06/29 03:55:20;;;;;;;3.73;3.53;;;19.80;99.90;;;;;;5088021;28;20199;-82
2021/06/29 03:57:46;;;;;;;3.10;2.90;;;19.90;99.90;;;;;;5085198;28;20397;-82
2021/06/29 04:00:13;;;;;;;4.37;3.97;;;19.90;99.90;;;;;;5085678;28;20779;-82
2021/06/29 04:02:39;;;;;;;5.03;4.63;;;19.90;99.90;;;;;;5085292;28;20401;-83
2021/06/29 04:05:06;;;;;;;3.80;3.50;;;20.00;99.90;;;;;;5084101;28;20429;-82
2021/06/29 04:07:35;;;;;;;5.10;4.70;;;20.00;99.90;;;;;;5084923;28;20598;-82
2021/06/29 04:10:04;;;;;;;4.60;4.20;;;20.10;99.90;;;;;;5099780;28;20487;-82
2021/06/29 04:12:30;;;;;;;5.33;4.47;;;20.10;99.90;;;;;;5084476;28;20723;-82
2021/06/29 04:14:55;;;;;;;5.43;5.03;;;20.10;99.90;;;;;;5084087;28;20398;-83
2021/06/29 04:17:21;;;;;;;6.80;4.37;;;20.10;99.90;;;;;;5084746;28;20166;-83
2021/06/29 04:19:47;;;;;;;6.70;4.33;;;20.10;99.90;;;;;;5084564;28;20160;-83
2021/06/29 04:22:13;;;;;;;4.50;4.20;;;20.10;99.90;;;;;;5084128;28;20537;-83
2021/06/29 04:24:39;;;;;;;5.17;4.77;;;20.10;99.90;;;;;;5083642;28;20170;-83
2021/06/29 04:27:05;;;;;;;5.20;4.70;;;19.80;99.90;;;;;;5083526;28;20225;-82
2021/06/29 04:29:31;;;;;;;5.87;5.27;;;19.80;99.90;;;;;;5099433;28;20437;-82
2021/06/29 04:31:57;;;;;;;6.70;6.10;;;19.70;99.90;;;;;;5082979;28;20398;-82
2021/06/29 04:34:23;;;;;;;5.30;4.90;;;19.20;99.90;;;;;;5083809;28;20214;-82
2021/06/29 04:36:49;;;;;;;5.30;4.80;;;19.30;99.90;;;;;;5083089;28;20166;-84
2021/06/29 04:39:14;;;;;;;5.50;5.00;;;19.20;99.90;;;;;;5084120;28;20183;-82
2021/06/29 04:41:40;;;;;;;6.97;5.90;;;19.20;99.90;;;;;;5085541;28;20238;-82
2021/06/29 04:44:06;;;;;;;7.90;5.90;;;19.30;99.90;;;;;;5086133;28;20596;-82
2021/06/29 04:46:33;;;;;;;6.57;6.00;;;19.10;99.90;;;;;;5084950;28;20160;-82
2021/06/29 04:48:59;;;;;;;7.47;6.27;;;19.30;99.90;;;;;;5101666;28;20163;-82
2021/06/29 04:51:25;;;;;;;7.90;6.83;;;19.20;99.90;;;;;;5085958;28;20407;-82
2021/06/29 04:53:51;;;;;;;6.47;5.97;;;19.20;99.90;;;;;;5085966;28;20397;-82
2021/06/29 04:56:17;;;;;;;6.40;5.83;;;19.50;99.90;;;;;;5086518;28;20416;-82
2021/06/29 04:58:45;;;;;;;10.93;6.67;;;19.40;99.90;;;;;;5085517;28;20457;-82
2021/06/29 05:01:11;;;;;;;6.53;5.97;;;19.30;99.90;;;;;;5090023;28;20195;-83
2021/06/29 05:03:38;;;;;;;6.60;6.00;;;19.40;99.90;;;;;;5091285;28;20393;-82
2021/06/29 05:06:04;;;;;;;7.43;5.43;;;19.40;99.90;;;;;;5091062;28;20470;-81
2021/06/29 05:08:30;;;;;;;10.10;6.40;;;19.40;99.90;;;;;;5086807;28;20425;-82
2021/06/29 05:10:57;;;;;;;7.43;6.83;;;19.40;99.90;;;;;;5101126;28;20167;-83
2021/06/29 05:13:23;;;;;;;6.77;6.17;;;19.30;99.90;;;;;;5086485;28;20435;-83
2021/06/29 05:15:48;;;;;;;5.30;4.90;;;19.20;99.90;;;;;;5087138;28;20425;-82
2021/06/29 05:18:16;;;;;;;7.97;6.13;;;19.20;99.90;;;;;;5091556;28;20432;-79
2021/06/29 05:20:42;;;;;;;5.83;5.23;;;19.50;99.90;;;;;;5095676;28;20501;-80
2021/06/29 05:23:08;;;;;;;6.63;6.13;;;19.40;99.90;;;;;;5095695;28;20412;-79
2021/06/29 05:25:33;;;;;;;6.30;5.80;;;19.50;99.90;;;;;;5094268;28;20168;-79
2021/06/29 05:27:59;;;;;;;8.47;5.23;;;19.60;99.90;;;;;;5090958;28;20433;-82
2021/06/29 05:30:25;;;;;;;6.30;5.80;;;19.50;99.90;;;;;;5086015;28;20199;-83
2021/06/29 05:32:51;;;;;;;6.63;5.97;;;19.20;99.90;;;;;;5085424;28;20171;-81
2021/06/29 05:35:17;;;;;;;5.67;5.20;;;19.40;99.90;;;;;;5101634;28;20229;-82
2021/06/29 05:37:43;;;;;;;7.20;5.70;;;19.70;99.90;;;;;;5085375;28;20235;-82
2021/06/29 05:40:09;;;;;;;5.30;4.80;;;19.80;99.90;;;;;;5085787;28;20191;-82
2021/06/29 05:42:35;;;;;;;6.13;5.63;;;19.70;99.90;;;;;;5085440;28;20230;-82
2021/06/29 05:45:02;;;;;;;6.30;5.77;;;19.50;99.90;;;;;;5085983;28;20390;-83
2021/06/29 05:47:28;;;;;;;5.27;4.87;;;19.30;99.90;;;;;;5101061;28;20448;-83
2021/06/29 05:49:54;;;;;;;7.37;6.13;;;19.50;99.90;;;;;;5085933;28;20417;-83
2021/06/29 05:52:20;;;;;;;5.30;4.93;;;19.50;99.90;;;;;;5084628;28;20430;-82
2021/06/29 05:54:45;;;;;;;6.90;6.20;;;19.50;99.90;;;;;;5086071;28;20783;-82
2021/06/29 05:57:13;;;;;;;7.67;6.03;;;19.50;99.90;;;;;;5091702;28;20513;-80
2021/06/29 05:59:40;;;;;;;5.90;5.40;;;19.60;99.90;;;;;;5094097;28;20167;-79
2021/06/29 06:02:08;;;;;;;6.40;5.80;;;19.70;99.90;;;;;;5086439;28;20456;-83
2021/06/29 06:04:34;;;;;;;7.23;5.90;;;19.60;99.90;;;;;;5086188;28;20468;-83
2021/06/29 06:07:01;;;;;;;6.20;5.60;;;19.80;99.90;;;;;;5086316;28;20413;-82
2021/06/29 06:09:27;;;;;;;6.60;5.90;;;19.40;99.90;;;;;;5074388;28;20476;-83
2021/06/29 06:11:52;;;;;;;5.50;5.00;;;19.30;99.90;;;;;;5087395;28;20163;-83
2021/06/29 06:14:18;;;;;;;6.83;6.20;;;19.40;99.90;;;;;;5086556;28;20209;-83
2021/06/29 06:16:44;;;;;;;5.70;5.13;;;19.30;99.90;;;;;;5085305;28;20622;-83
2021/06/29 06:19:10;;;;;;;6.83;6.10;;;19.30;99.90;;;;;;5085539;28;20163;-83
2021/06/29 06:21:35;;;;;;;7.20;6.10;;;19.30;99.90;;;;;;5086147;28;20238;-82
2021/06/29 06:24:01;;;;;;;8.80;6.40;;;19.30;99.90;;;;;;5085192;28;20213;-83
2021/06/29 06:26:27;;;;;;;6.40;5.90;;;19.40;99.90;;;;;;5085622;28;20256;-83
2021/06/29 06:28:53;;;;;;;5.90;5.30;;;19.40;99.90;;;;;;5085563;28;20604;-84
2021/06/29 06:31:19;;;;;;;6.50;5.90;;;19.60;99.90;;;;;;5086248;28;20183;-83
2021/06/29 06:33:44;;;;;;;8.30;7.50;;;19.60;99.90;;;;;;5083605;28;20213;-83
2021/06/29 06:36:11;;;;;;;8.77;6.93;;;19.50;99.90;;;;;;5051302;28;20197;-84
2021/06/29 06:38:37;;;;;;;6.53;5.93;;;19.60;99.90;;;;;;5068186;28;20178;-83
2021/06/29 06:41:03;;;;;;;6.87;5.87;;;19.40;99.90;;;;;;5086289;28;20469;-84
2021/06/29 06:43:29;;;;;;;6.60;6.00;;;19.50;99.90;;;;;;5085329;28;20441;-83
2021/06/29 06:45:55;;;;;;;6.17;5.67;;;19.90;99.90;;;;;;5081815;28;20443;-83
2021/06/29 06:48:21;;;;;;;6.20;4.40;;;19.80;99.90;;;;;;5087247;28;20167;-80
2021/06/29 06:50:46;;;;;;;6.77;6.17;;;20.10;99.90;;;;;;5075762;28;20269;-83
2021/06/29 06:53:14;;;;;;;5.23;4.83;;;20.40;99.90;;;;;;5063739;28;21782;-84
2021/06/29 06:55:40;;;;;;;5.43;5.03;;;20.00;99.90;;;;;;5087148;28;20187;-83
2021/06/29 06:58:06;;;;;;;5.53;4.53;;;20.10;99.90;;;;;;5072126;28;20447;-83
2021/06/29 07:00:32;;;;;;;5.73;5.20;;;20.20;99.90;;;;;;5088855;28;20468;-83
2021/06/29 07:02:58;;;;;;;5.53;5.03;;;20.40;99.90;;;;;;5088992;28;20156;-83
2021/06/29 07:05:24;;;;;;;7.67;6.00;;;20.10;99.90;;;;;;5089837;28;20444;-83
2021/06/29 07:07:50;;;;;;;5.73;5.33;;;20.10;99.90;;;;;;5089640;28;20540;-83
2021/06/29 07:10:16;;;;;;;5.93;5.40;;;20.20;99.90;;;;;;5085984;28;20406;-83
2021/06/29 07:12:42;;;;;;;4.67;4.30;;;20.00;99.90;;;;;;5080458;28;20199;-82
2021/06/29 07:15:09;;;;;;;6.07;5.27;;;19.90;99.90;;;;;;5088230;28;20429;-83
2021/06/29 07:17:36;;;;;;;5.97;5.57;;;19.90;99.90;;;;;;5071575;28;20514;-83
2021/06/29 07:20:05;;;;;;;8.80;5.00;;;20.10;99.90;;;;;;5088275;28;20485;-83
2021/06/29 07:22:31;;;;;;;6.33;5.73;;;20.10;99.90;;;;;;5088924;28;20472;-83
2021/06/29 07:24:57;;;;;;;5.87;5.37;;;20.20;99.90;;;;;;5087672;28;20413;-83
2021/06/29 07:27:24;;;;;;;7.20;5.27;;;20.30;99.90;;;;;;5088695;28;20308;-83
2021/06/29 07:29:49;;;;;;;6.70;6.00;;;20.60;99.90;;;;;;5085573;28;20168;-83
2021/06/29 07:32:15;;;;;;;5.60;5.10;;;20.70;99.90;;;;;;5087924;28;20492;-83
2021/06/29 07:34:41;;;;;;;6.33;5.83;;;20.50;99.90;;;;;;5089798;28;20178;-82
2021/06/29 07:37:07;;;;;;;5.57;5.10;;;20.40;99.90;;;;;;5089691;28;20179;-82
2021/06/29 07:39:33;;;;;;;5.80;5.30;;;20.50;99.90;;;;;;5089074;28;20590;-82
2021/06/29 07:41:59;;;;;;;4.80;4.50;;;20.60;99.90;;;;;;5071084;28;20336;-81
2021/06/29 07:44:25;;;;;;;5.50;4.90;;;20.50;99.90;;;;;;5092407;28;20163;-82
2021/06/29 07:46:51;;;;;;;5.20;4.70;;;20.80;99.90;;;;;;5094465;28;20385;-80
2021/06/29 07:49:18;;;;;;;6.63;5.07;;;20.90;99.90;;;;;;5095159;28;20171;-80
2021/06/29 07:51:44;;;;;;;4.97;4.60;;;20.90;99.90;;;;;;5091515;28;20421;-83
2021/06/29 07:54:10;;;;;;;5.37;4.97;;;20.80;99.90;;;;;;5072594;28;20773;-83
2021/06/29 07:56:37;;;;;;;5.83;5.00;;;21.00;99.90;;;;;;5088385;28;20435;-83
2021/06/29 07:59:04;;;;;;;6.10;4.77;;;20.80;99.90;;;;;;5084383;28;20229;-83
2021/06/29 08:01:30;;;;;;;4.93;4.50;;;21.00;99.90;;;;;;5068544;28;20525;-83
2021/06/29 08:03:56;;;;;;;5.97;5.47;;;21.00;99.90;;;;;;5087588;28;20441;-83
2021/06/29 08:06:21;;;;;;;5.30;4.90;;;21.00;99.90;;;;;;5086425;28;20444;-82
2021/06/29 08:08:47;;;;;;;5.33;4.93;;;20.90;99.90;;;;;;5069626;28;20280;-85
2021/06/29 08:11:13;;;;;;;4.87;4.47;;;20.70;99.90;;;;;;5094394;28;20182;-81
2021/06/29 08:13:40;;;;;;;4.70;4.40;;;20.80;99.90;;;;;;5094557;28;20184;-81
2021/06/29 08:16:07;;;;;;;4.53;4.23;;;21.20;99.90;;;;;;5090065;28;20175;-81
2021/06/29 08:18:34;;;;;;;5.90;5.37;;;20.80;99.90;;;;;;5089775;28;20429;-82
2021/06/29 08:21:01;;;;;;;4.90;4.53;;;20.90;99.90;;;;;;5087779;28;20456;-83
2021/06/29 08:23:28;;;;;;;6.40;5.70;;;20.90;99.90;;;;;;5070791;28;20416;-82
2021/06/29 08:25:54;;;;;;;5.67;4.93;;;21.20;99.90;;;;;;5087354;28;20481;-83
2021/06/29 08:28:20;;;;;;;4.40;4.10;;;21.10;99.90;;;;;;5081103;28;20911;-82
2021/06/29 08:30:46;;;;;;;4.07;3.77;;;20.90;99.90;;;;;;5079092;28;20495;-82
2021/06/29 08:33:12;;;;;;;4.90;4.50;;;21.00;99.90;;;;;;5084774;28;20471;-83
2021/06/29 08:35:44;;;;;;;5.50;5.00;;;20.90;99.90;;;;;;5084787;28;20421;-83
2021/06/29 08:38:11;;;;;;;4.87;4.47;;;20.90;99.90;;;;;;5063033;28;20574;-83
2021/06/29 08:40:39;;;;;;;5.47;5.07;;;21.00;99.90;;;;;;5065944;28;20446;-83
2021/06/29 08:43:06;;;;;;;7.23;6.53;;;20.70;99.90;;;;;;5084765;28;20414;-84
2021/06/29 08:45:33;;;;;;;5.40;4.97;;;20.80;99.90;;;;;;5066721;28;20414;-82
2021/06/29 08:48:01;;;;;;;6.20;5.77;;;20.90;99.90;;;;;;5085426;28;20428;-82
2021/06/29 08:50:30;;;;;;;6.13;5.63;;;20.90;99.90;;;;;;5084937;28;20449;-82
2021/06/29 08:53:03;;;;;;;5.33;4.93;;;20.80;99.90;;;;;;5085713;28;20461;-83
2021/06/29 08:55:35;;;;;;;5.77;5.20;;;21.10;99.90;;;;;;5063045;28;20421;-83
2021/06/29 08:58:00;;;;;;;5.57;5.17;;;21.20;99.90;;;;;;5098345;28;20413;-82
2021/06/29 09:00:34;;;;;;;5.07;4.57;;;20.90;99.90;;;;;;5091565;28;20472;-83
2021/06/29 09:03:00;;;;;;;5.20;4.80;;;21.00;99.90;;;;;;5048986;28;20180;-85
2021/06/29 09:05:30;;;;;;;9.10;5.20;;;21.40;99.90;;;;;;5065263;28;20391;-82
2021/06/29 09:08:05;;;;;;;6.70;6.20;;;21.20;99.90;;;;;;5062035;28;20524;-83
2021/06/29 09:10:32;;;;;;;5.60;5.20;;;21.20;99.90;;;;;;5042828;28;20429;-82
2021/06/29 09:13:00;;;;;;;5.57;5.10;;;21.40;99.90;;;;;;5046814;28;20519;-83
2021/06/29 09:15:30;;;;;;;5.07;4.67;;;21.30;99.90;;;;;;5064857;28;20501;-83
2021/06/29 09:18:10;;;;;;;5.17;4.83;;;21.60;99.90;;;;;;5048118;28;20441;-83
2021/06/29 09:20:47;;;;;;;5.50;5.00;;;21.60;99.90;;;;;;5064521;28;20504;-84
2021/06/29 09:23:18;;;;;;;4.70;4.40;;;22.00;99.90;;;;;;5048463;28;20426;-83
2021/06/29 09:25:47;;;;;;;5.20;4.80;;;22.00;99.90;;;;;;5027993;28;20399;-83
2021/06/29 09:28:18;;;;;;;5.33;4.20;;;21.80;99.90;;;;;;5039757;28;20438;-81
2021/06/29 09:30:47;;;;;;;4.33;3.80;;;21.90;99.90;;;;;;5047149;28;20458;-82
2021/06/29 09:33:16;;;;;;;4.60;4.20;;;22.40;99.90;;;;;;5070114;28;20425;-83
2021/06/29 09:35:46;;;;;;;5.27;4.90;;;22.10;99.90;;;;;;5063032;28;20425;-84
2021/06/29 09:38:20;;;;;;;4.17;3.87;;;22.10;99.90;;;;;;5086165;28;20413;-82
2021/06/29 09:40:53;;;;;;;6.03;4.70;;;22.90;99.90;;;;;;5086336;28;20455;-83
2021/06/29 09:43:20;;;;;;;4.37;4.00;;;22.90;99.90;;;;;;5084433;28;20441;-82
2021/06/29 09:45:59;;;;;;;5.40;4.90;;;22.80;99.90;;;;;;5068913;28;20448;-82
2021/06/29 09:48:32;;;;;;;4.73;4.40;;;22.90;99.90;;;;;;5083990;28;20440;-83
2021/06/29 09:51:03;;;;;;;4.70;4.30;;;22.80;99.90;;;;;;5083161;28;20520;-83
2021/06/29 09:53:38;;;;;;;5.17;4.83;;;23.60;99.90;;;;;;5083510;28;20481;-83
2021/06/29 09:56:11;;;;;;;4.60;4.03;;;24.00;99.90;;;;;;5089619;28;20511;-82
2021/06/29 09:58:38;;;;;;;4.40;3.37;;;24.40;99.90;;;;;;5084025;28;20461;-82
2021/06/29 10:01:08;;;;;;;4.47;4.13;;;24.80;99.90;;;;;;5083138;28;20493;-83
2021/06/29 10:03:38;;;;;;;4.53;3.97;;;24.60;99.90;;;;;;5082975;28;20438;-83
2021/06/29 10:06:23;;;;;;;5.07;4.47;;;24.20;99.90;;;;;;5084885;28;20450;-83
2021/06/29 10:08:52;;;;;;;4.20;3.80;;;24.50;99.90;;;;;;5066380;28;20450;-84
2021/06/29 10:11:24;;;;;;;6.20;3.63;;;24.70;99.90;;;;;;5089254;28;20561;-83
2021/06/29 10:13:53;;;;;;;4.70;3.27;;;24.00;99.90;;;;;;5067642;28;20420;-83
2021/06/29 10:16:24;;;;;;;4.03;3.67;;;24.20;99.90;;;;;;5063434;28;20423;-84
2021/06/29 10:19:03;;;;;;;13.27;12.33;;;24.30;99.90;;;;;;5083190;28;20486;-82
2021/06/29 10:21:32;;;;;;;3.50;3.30;;;23.70;99.90;;;;;;5069996;28;20464;-84
2021/06/29 10:24:02;;;;;;;3.67;2.93;;;23.70;99.90;;;;;;5063788;28;20442;-83
2021/06/29 10:26:30;;;;;;;3.40;3.10;;;23.40;99.90;;;;;;5065378;28;20726;-83
2021/06/29 10:28:56;;;;;;;3.83;3.63;;;23.60;99.90;;;;;;5070860;28;20428;-83
2021/06/29 10:31:28;;;;;;;4.70;4.40;;;23.70;99.90;;;;;;5085499;28;20444;-83
2021/06/29 10:33:57;;;;;;;4.10;3.80;;;23.70;99.90;;;;;;5084074;28;20440;-83
2021/06/29 10:36:25;;;;;;;5.80;3.80;;;23.70;99.90;;;;;;5084332;28;20503;-83
2021/06/29 10:38:53;;;;;;;3.47;3.27;;;23.60;99.90;;;;;;5085021;28;20409;-83
2021/06/29 10:41:21;;;;;;;3.87;3.63;;;23.60;99.90;;;;;;5085242;28;20531;-83
2021/06/29 10:43:48;;;;;;;4.00;3.70;;;23.90;99.90;;;;;;5066215;28;20486;-83
2021/06/29 10:46:34;;;;;;;4.57;4.27;;;24.40;99.90;;;;;;5084654;28;20420;-83
2021/06/29 10:49:31;;;;;;;4.23;3.90;;;24.30;99.90;;;;;;5083592;28;20508;-81
2021/06/29 10:52:02;;;;;;;7.63;3.70;;;24.20;99.90;;;;;;5067653;28;20450;-84
2021/06/29 10:54:46;;;;;;;3.50;3.30;;;24.40;99.90;;;;;;5084426;28;20424;-84
2021/06/29 10:57:16;;;;;;;5.80;3.90;;;24.30;99.90;;;;;;5083532;28;20436;-81
2021/06/29 10:59:49;;;;;;;4.63;4.30;;;24.90;99.90;;;;;;5083427;28;20538;-83
2021/06/29 11:02:29;;;;;;;3.77;3.47;;;25.30;99.90;;;;;;5085292;28;20552;-80
2021/06/29 11:05:00;;;;;;;4.20;3.90;;;25.30;99.90;;;;;;5067686;28;20426;-83
2021/06/29 11:07:45;;;;;;;4.67;4.20;;;25.50;99.90;;;;;;5089109;28;20444;-83
2021/06/29 11:10:14;;;;;;;3.90;3.70;;;25.00;99.90;;;;;;5087434;28;20418;-83
2021/06/29 11:12:50;;;;;;;4.50;4.20;;;25.20;99.90;;;;;;5085124;28;20417;-83
2021/06/29 11:15:16;;;;;;;9.50;4.50;;;25.50;99.90;;;;;;5085611;28;20465;-81
2021/06/29 11:17:56;;;;;;;3.67;2.90;;;25.10;99.90;;;;;;5083767;28;20397;-83
2021/06/29 11:20:25;;;;;;;4.17;3.30;;;25.20;99.90;;;;;;5065581;28;20386;-83
2021/06/29 11:22:58;;;;;;;4.37;3.97;;;24.90;99.90;;;;;;5048986;28;20391;-82
2021/06/29 11:25:53;;;;;;;5.53;3.63;;;25.10;99.90;;;;;;5069876;28;20402;-82
2021/06/29 11:28:28;;;;;;;3.50;3.20;;;24.60;99.90;;;;;;5087445;28;20501;-83
2021/06/29 11:30:57;;;;;;;2.87;2.70;;;24.80;99.90;;;;;;5087123;28;20478;-83
2021/06/29 11:33:40;;;;;;;3.87;3.40;;;25.50;99.90;;;;;;5088071;28;20463;-83
2021/06/29 11:36:43;;;;;;;6.97;3.10;;;25.50;99.90;;;;;;5068494;28;20434;-83
2021/06/29 11:39:26;;;;;;;3.57;3.37;;;25.80;99.90;;;;;;5075502;28;20439;-83
2021/06/29 11:42:05;;;;;;;3.43;3.20;;;25.90;99.90;;;;;;5066635;28;20825;-82
2021/06/29 11:44:42;;;;;;;4.17;3.77;;;26.50;99.90;;;;;;5067441;28;20406;-82
2021/06/29 11:47:13;;;;;;;3.87;3.57;;;26.70;99.90;;;;;;5067815;28;20394;-82
2021/06/29 11:49:51;;;;;;;4.27;3.90;;;26.60;99.90;;;;;;5051874;28;20405;-84
2021/06/29 11:52:21;;;;;;;4.83;4.30;;;27.30;99.90;;;;;;5068595;28;20547;-83
2021/06/29 11:54:58;;;;;;;3.13;2.93;;;27.80;99.90;;;;;;5075473;28;20386;-81
2021/06/29 11:57:48;;;;;;;3.93;3.73;;;27.10;99.90;;;;;;5060090;28;20418;-83
2021/06/29 12:00:27;;;;;;;3.87;3.63;;;26.30;99.90;;;;;;5064155;28;20420;-81
2021/06/29 12:02:59;;;;;;;3.50;3.20;;;25.90;99.90;;;;;;5058593;28;20398;-82
2021/06/29 12:05:28;;;;;;;4.57;3.70;;;26.70;99.90;;;;;;5053200;28;20402;-84
2021/06/29 12:08:02;;;;;;;5.70;3.50;;;26.30;99.90;;;;;;5069744;28;20426;-83
2021/06/29 12:10:31;;;;;;;3.67;3.37;;;26.30;99.90;;;;;;5067774;28;20390;-83
2021/06/29 12:13:03;;;;;;;3.93;3.63;;;26.50;99.90;;;;;;5068697;28;20386;-82
2021/06/29 12:15:33;;;;;;;3.10;2.90;;;26.20;99.90;;;;;;5069555;28;20414;-82
2021/06/29 12:18:04;;;;;;;4.43;2.90;;;25.70;99.90;;;;;;5070017;28;20465;-81
2021/06/29 12:20:38;;;;;;;3.63;3.43;;;26.50;99.90;;;;;;5069067;28;20401;-84
2021/06/29 12:23:06;;;;;;;3.20;3.00;;;26.70;99.90;;;;;;5053051;28;20393;-84
2021/06/29 12:25:37;;;;;;;3.20;3.00;;;26.80;99.90;;;;;;5085206;28;20401;-84
2021/06/29 12:28:09;;;;;;;4.33;2.87;;;26.70;99.90;;;;;;5068946;28;20394;-84
2021/06/29 12:30:38;;;;;;;3.30;3.10;;;27.10;99.90;;;;;;5068104;28;20397;-84
2021/06/29 12:33:21;;;;;;;4.17;3.77;;;26.80;99.90;;;;;;5068775;28;20408;-84
2021/06/29 12:35:52;;;;;;;3.60;3.30;;;26.60;99.90;;;;;;5085320;28;20405;-83
2021/06/29 12:38:21;;;;;;;4.50;4.00;;;26.00;99.90;;;;;;5085079;28;20416;-84
2021/06/29 12:40:52;;;;;;;3.20;3.00;;;26.10;99.90;;;;;;5068176;28;20444;-83
2021/06/29 12:43:21;;;;;;;3.70;2.93;;;26.00;99.90;;;;;;5068720;28;20401;-83
2021/06/29 12:45:47;;;;;;;3.73;2.83;;;26.10;99.90;;;;;;5065226;28;20418;-83
2021/06/29 12:48:13;;;;;;;3.07;2.87;;;26.20;99.90;;;;;;5068684;28;20769;-83
2021/06/29 12:50:42;;;;;;;3.13;2.93;;;26.00;99.90;;;;;;5085894;28;20163;-83